Terminal Aerodrome Forecast
Issued by NWS Sterling, VA

Current Version | Previous Version | Text Only | Print | Product List | Glossary Off
Versions: 1 2 3 4 5 6 7 8 9 10 11 12 13 14 15 16 17 18 19 20 21

000
FTUS41 KLWX 272238 AAB
TAFMRB
TAF AMD
KMRB 272238Z 2723/2818 02008KT P6SM OVC006
     FM280000 19010KT 4SM SHRA OVC008
     FM280200 23006KT 6SM -SHRA OVC015
     FM280700 25009KT P6SM SCT060
     FM281300 26014G22KT P6SM BKN050=

USA.gov is the U.S. government's official web portal to all federal, state and local government web resources and services.